Time;durP1;ratioP1;P1;durP2;ratioP2;P2;SDS_P1;SDS_P2;PMS_P1;PMS_P2;Temp;Humidity;BMP_temperature;BMP_pressure;BME280_temperature;BME280_humidity;BME280_pressure;Samples;Min_cycle;Max_cycle;Signal;HPM_P1;HPM_P2
2022/11/11 00:01:17;;;;;;;;;;;;;;;16.04;78.84;101743.09;5054895;28;1901;-62
2022/11/11 00:03:43;;;;;;;;;;;;;;;16.06;78.97;101737.31;5054988;28;987;-62
2022/11/11 00:06:13;;;;;;;;;;;;;;;16.06;78.92;101734.53;5054575;28;1014;-61
2022/11/11 00:08:38;;;;;;;;;;;;;;;16.05;79.19;101739.22;5054982;28;1324;-62
2022/11/11 00:11:04;;;;;;;;;;;;;;;16.06;78.96;101731.78;5054854;28;1172;-62
2022/11/11 00:13:30;;;;;;;;;;;;;;;16.05;78.89;101730.13;5054829;28;983;-62
2022/11/11 00:15:55;;;;;;;;;;;;;;;16.05;79.19;101741.16;5054560;28;920;-62
2022/11/11 00:27:13;;;;;;;;;;;;;;;16.05;78.81;101739.22;5031818;28;784;-62
2022/11/11 00:29:39;;;;;;;;;;;;;;;16.05;78.59;101738.41;5047867;28;1290;-62
2022/11/11 00:32:23;;;;;;;;;;;;;;;16.03;78.80;101741.44;5054449;28;983;-62
2022/11/11 00:37:33;;;;;;;;;;;;;;;16.04;79.45;101747.81;5054587;28;759;-62
2022/11/11 00:39:58;;;;;;;;;;;;;;;16.03;78.46;101746.16;5054234;28;1208;-62
2022/11/11 00:42:23;;;;;;;;;;;;;;;16.04;79.28;101748.63;5054218;28;1897;-62
2022/11/11 00:44:49;;;;;;;;;;;;;;;16.03;79.06;101749.75;5054400;28;856;-62
2022/11/11 00:52:44;;;;;;;;;;;;;;;16.02;78.84;101767.41;5054129;28;664;-61
2022/11/11 00:55:09;;;;;;;;;;;;;;;16.02;79.10;101761.06;5054054;28;988;-62
2022/11/11 00:57:34;;;;;;;;;;;;;;;16.01;78.97;101757.47;5053712;28;693;-62
2022/11/11 00:59:59;;;;;;;;;;;;;;;16.02;78.74;101759.13;5053956;28;1212;-62
2022/11/11 01:02:24;;;;;;;;;;;;;;;16.01;78.58;101771.28;5053949;28;1901;-62
2022/11/11 01:04:49;;;;;;;;;;;;;;;16.02;78.91;101769.34;5054152;28;697;-62
2022/11/11 01:07:15;;;;;;;;;;;;;;;16.01;78.78;101762.19;5053591;28;967;-61
2022/11/11 01:09:40;;;;;;;;;;;;;;;16.01;78.87;101763.00;5053814;28;1217;-62
2022/11/11 01:12:05;;;;;;;;;;;;;;;16.01;78.99;101757.47;5053854;28;864;-62
2022/11/11 01:14:30;;;;;;;;;;;;;;;16.00;78.95;101764.09;5053815;28;975;-62
2022/11/11 01:16:55;;;;;;;;;;;;;;;16.00;79.13;101758.59;5053556;28;822;-61
2022/11/11 01:19:20;;;;;;;;;;;;;;;15.99;78.84;101759.69;5053561;28;1211;-62
2022/11/11 01:21:46;;;;;;;;;;;;;;;15.99;78.59;101756.94;5053752;28;1894;-62
2022/11/11 01:24:11;;;;;;;;;;;;;;;16.00;78.82;101760.53;5053810;28;999;-62
2022/11/11 01:26:36;;;;;;;;;;;;;;;15.99;78.73;101754.16;5053546;28;982;-62
2022/11/11 01:29:01;;;;;;;;;;;;;;;15.99;78.68;101754.16;5053609;28;1196;-62
2022/11/11 01:31:26;;;;;;;;;;;;;;;15.99;78.85;101754.16;5053444;28;942;-62
2022/11/11 01:33:51;;;;;;;;;;;;;;;15.98;78.81;101755.31;5053764;28;955;-62
2022/11/11 01:36:18;;;;;;;;;;;;;;;15.98;78.72;101752.53;5053538;28;853;-62
2022/11/11 01:38:47;;;;;;;;;;;;;;;15.99;78.68;101740.34;5052709;28;995;-62
2022/11/11 01:41:31;;;;;;;;;;;;;;;15.98;78.94;101738.75;5053280;28;1897;-62
2022/11/11 01:44:01;;;;;;;;;;;;;;;15.99;79.04;101751.41;5053538;28;820;-62
2022/11/11 01:46:28;;;;;;;;;;;;;;;15.98;78.82;101747.03;5053290;28;999;-62
2022/11/11 01:51:46;;;;;;;;;;;;;;;15.98;78.78;101754.47;5053791;28;743;-61
2022/11/11 01:54:23;;;;;;;;;;;;;;;15.98;78.92;101752.53;5053376;28;1034;-62
2022/11/11 01:56:51;;;;;;;;;;;;;;;15.98;78.94;101760.00;5053027;28;1037;-62
2022/11/11 01:59:17;;;;;;;;;;;;;;;15.97;78.76;101753.66;5053170;28;1342;-61
2022/11/11 02:01:43;;;;;;;;;;;;;;;15.98;78.66;101757.25;5053237;28;1894;-62
2022/11/11 02:06:54;;;;;;;;;;;;;;;15.96;78.71;101771.34;5053202;28;784;-62
2022/11/11 02:09:21;;;;;;;;;;;;;;;15.97;78.92;101775.75;5053306;28;1235;-62
2022/11/11 02:14:35;;;;;;;;;;;;;;;15.96;78.74;101778.78;5053590;28;678;-62
2022/11/11 02:17:04;;;;;;;;;;;;;;;15.95;79.00;101789.00;5053026;28;1104;-62
2022/11/11 02:19:49;;;;;;;;;;;;;;;15.96;78.80;101793.41;5052993;28;1188;-62
2022/11/11 02:22:22;;;;;;;;;;;;;;;15.95;78.82;101785.41;5053189;28;1967;-62
2022/11/11 02:24:48;;;;;;;;;;;;;;;15.95;78.64;101783.47;5053075;28;876;-62
2022/11/11 02:27:14;;;;;;;;;;;;;;;15.94;78.73;101781.81;5053013;28;869;-62
2022/11/11 02:29:40;;;;;;;;;;;;;;;15.97;78.76;101784.03;5039298;28;1288;-62
2022/11/11 02:32:05;;;;;;;;;;;;;;;15.95;78.75;101763.31;5033237;28;974;-62
2022/11/11 02:34:31;;;;;;;;;;;;;;;15.95;78.54;101771.59;5033057;28;880;-62
2022/11/11 02:36:57;;;;;;;;;;;;;;;15.94;78.88;101764.44;5033142;28;988;-62
2022/11/11 02:39:23;;;;;;;;;;;;;;;15.94;78.76;101767.19;5032868;28;1203;-62
2022/11/11 02:41:57;;;;;;;;;;;;;;;15.94;78.61;101769.97;5032977;28;1910;-62
2022/11/11 02:44:25;;;;;;;;;;;;;;;15.93;78.82;101766.38;5032916;28;912;-62
2022/11/11 02:46:51;;;;;;;;;;;;;;;15.94;78.78;101761.66;5032752;28;810;-62
2022/11/11 02:49:16;;;;;;;;;;;;;;;15.92;78.96;101761.94;5033056;28;1213;-62
2022/11/11 02:51:41;;;;;;;;;;;;;;;15.92;78.54;101755.59;5036257;28;826;-62
2022/11/11 02:54:06;;;;;;;;;;;;;;;15.93;78.79;101758.09;5036546;28;979;-61
2022/11/11 02:59:15;;;;;;;;;;;;;;;15.92;78.65;101756.44;5036737;28;1281;-61
2022/11/11 03:01:40;;;;;;;;;;;;;;;15.92;78.67;101761.13;5036290;28;1949;-62
2022/11/11 03:04:05;;;;;;;;;;;;;;;15.92;78.74;101766.66;5036304;28;964;-61
2022/11/11 03:06:30;;;;;;;;;;;;;;;15.89;78.51;101768.88;5036149;28;1128;-62
2022/11/11 03:08:56;;;;;;;;;;;;;;;15.92;78.75;101770.22;5036151;28;1039;-62
2022/11/11 03:11:26;;;;;;;;;;;;;;;15.91;78.75;101765.03;5036309;28;1129;-62
2022/11/11 03:13:55;;;;;;;;;;;;;;;15.91;78.60;101776.88;5036213;28;920;-62
2022/11/11 03:19:06;;;;;;;;;;;;;;;15.91;79.18;101804.47;5044913;28;1203;-62
2022/11/11 03:21:31;;;;;;;;;;;;;;;15.91;78.56;101803.69;5035954;28;1922;-61
2022/11/11 03:23:56;;;;;;;;;;;;;;;15.91;78.61;101810.00;5036129;28;811;-61
2022/11/11 03:26:21;;;;;;;;;;;;;;;15.91;78.68;101804.47;5035524;28;948;-62
2022/11/11 03:28:46;;;;;;;;;;;;;;;15.91;78.56;101798.16;5035471;28;972;-62
2022/11/11 03:31:12;;;;;;;;;;;;;;;15.89;78.62;101799.25;5035921;28;1211;-62
2022/11/11 03:33:37;;;;;;;;;;;;;;;15.91;78.68;101809.22;5035865;28;991;-62
2022/11/11 03:36:02;;;;;;;;;;;;;;;15.91;78.53;101812.75;5035722;28;927;-62
2022/11/11 03:38:27;;;;;;;;;;;;;;;15.90;78.67;101819.41;5035713;28;931;-62
2022/11/11 03:40:55;;;;;;;;;;;;;;;15.89;78.73;101812.25;5035601;28;1203;-62
2022/11/11 03:43:22;;;;;;;;;;;;;;;15.89;78.71;101817.78;5035710;28;1898;-62
2022/11/11 03:45:47;;;;;;;;;;;;;;;15.88;78.83;101816.94;5035446;28;909;-62
2022/11/11 03:48:13;;;;;;;;;;;;;;;15.87;78.96;101807.00;5035492;28;797;-62
2022/11/11 03:50:38;;;;;;;;;;;;;;;15.87;78.97;101807.00;5035467;28;1189;-62
2022/11/11 03:53:05;;;;;;;;;;;;;;;15.87;78.20;101812.53;5035573;28;971;-62
2022/11/11 03:55:30;;;;;;;;;;;;;;;15.87;78.71;101800.66;5035444;28;940;-62
2022/11/11 03:57:55;;;;;;;;;;;;;;;15.87;78.80;101806.19;5035008;28;975;-62
2022/11/11 04:00:22;;;;;;;;;;;;;;;15.87;79.00;101803.41;5035469;28;1215;-61
2022/11/11 04:11:11;;;;;;;;;;;;;;;15.86;78.56;101812.81;5035464;28;1144;-62
2022/11/11 04:16:21;;;;;;;;;;;;;;;15.86;78.67;101799.81;5035091;28;671;-61
2022/11/11 04:21:42;;;;;;;;;;;;;;;15.85;78.59;101783.53;5035121;28;1899;-62
2022/11/11 04:26:53;;;;;;;;;;;;;;;15.86;78.48;101779.66;5034793;28;717;-61
2022/11/11 04:29:27;;;;;;;;;;;;;;;15.84;78.64;101782.72;5034612;28;1221;-62
2022/11/11 04:34:37;;;;;;;;;;;;;;;15.85;78.56;101794.59;5034911;28;709;-62
2022/11/11 04:37:02;;;;;;;;;;;;;;;15.84;78.47;101796.50;5034547;28;865;-62
2022/11/11 04:42:11;;;;;;;;;;;;;;;15.85;78.57;101789.88;5034120;28;1952;-62
2022/11/11 04:47:20;;;;;;;;;;;;;;;15.85;78.45;101784.38;5034407;28;735;-61
2022/11/11 04:49:45;;;;;;;;;;;;;;;15.84;78.00;101781.88;5034340;28;1294;-62
2022/11/11 04:52:26;;;;;;;;;;;;;;;15.84;78.44;101795.69;5034352;28;840;-61
2022/11/11 04:57:42;;;;;;;;;;;;;;;15.83;78.53;101789.34;5034091;28;777;-61
2022/11/11 05:00:08;;;;;;;;;;;;;;;15.83;78.50;101786.56;5034041;28;1206;-62
2022/11/11 05:05:17;;;;;;;;;;;;;;;15.87;78.62;101792.38;5034151;28;712;-61
2022/11/11 05:10:26;;;;;;;;;;;;;;;15.88;78.45;101803.13;5033795;28;1236;-61
2022/11/11 05:12:51;;;;;;;;;;;;;;;15.91;78.58;101798.94;5047297;28;1905;-61
2022/11/11 05:26:16;;;;;;;;;;;;;;;16.04;78.65;101792.81;5053223;28;740;-61
2022/11/11 05:28:41;;;;;;;;;;;;;;;16.06;79.14;101807.19;5053411;28;987;-61
2022/11/11 05:31:06;;;;;;;;;;;;;;;16.07;78.74;101803.31;5051324;22;2168;-63
2022/11/11 05:33:31;;;;;;;;;;;;;;;16.09;78.89;101803.00;5033272;28;990;-61
2022/11/11 05:35:57;;;;;;;;;;;;;;;16.10;78.60;101807.41;5019060;28;792;-61
2022/11/11 05:38:22;;;;;;;;;;;;;;;16.10;78.83;101810.19;5013525;28;1049;-61
2022/11/11 05:40:47;;;;;;;;;;;;;;;16.10;79.04;101805.47;5032054;28;1221;-61
2022/11/11 05:43:12;;;;;;;;;;;;;;;16.11;79.07;101809.91;5033126;28;1973;-61
2022/11/11 05:45:39;;;;;;;;;;;;;;;16.13;79.01;101809.63;5033212;28;1079;-62
2022/11/11 05:48:04;;;;;;;;;;;;;;;16.12;79.00;101811.56;5032881;28;955;-61
2022/11/11 05:50:29;;;;;;;;;;;;;;;16.12;78.70;101814.31;5033220;28;1278;-61
2022/11/11 05:52:55;;;;;;;;;;;;;;;16.12;78.99;101814.31;5033197;28;1047;-61
2022/11/11 05:55:20;;;;;;;;;;;;;;;16.13;78.99;101818.72;5033115;28;838;-62
2022/11/11 05:57:45;;;;;;;;;;;;;;;16.13;79.32;101817.91;5032592;28;1676;-61
2022/11/11 06:00:10;;;;;;;;;;;;;;;16.12;78.98;101828.13;5032571;28;1722;-63
2022/11/11 06:02:37;;;;;;;;;;;;;;;16.12;78.73;101822.59;5032982;28;1906;-63
2022/11/11 06:05:02;;;;;;;;;;;;;;;16.12;78.98;101827.28;5032545;28;1425;-64
2022/11/11 06:07:27;;;;;;;;;;;;;;;16.13;78.73;101834.47;5032450;28;1035;-63
2022/11/11 06:10:29;;;;;;;;;;;;;;;16.12;79.13;101839.19;5032937;28;1307;-63
2022/11/11 06:13:00;;;;;;;;;;;;;;;16.11;79.35;101843.03;5032848;28;1181;-64
2022/11/11 06:15:26;;;;;;;;;;;;;;;16.12;79.50;101838.34;5033256;28;1576;-63
2022/11/11 06:17:51;;;;;;;;;;;;;;;16.11;79.12;101844.97;5032733;28;1039;-63
2022/11/11 06:20:16;;;;;;;;;;;;;;;16.11;79.16;101848.56;5032835;28;1281;-63
2022/11/11 06:22:56;;;;;;;;;;;;;;;16.11;79.26;101844.97;5032793;28;1962;-61
2022/11/11 06:28:06;;;;;;;;;;;;;;;16.10;79.27;101862.66;5036798;28;677;-61
2022/11/11 06:30:31;;;;;;;;;;;;;;;16.10;79.35;101865.41;5036443;28;1206;-61
2022/11/11 06:32:56;;;;;;;;;;;;;;;16.09;79.11;101863.75;5036560;28;909;-62
2022/11/11 06:35:21;;;;;;;;;;;;;;;16.09;79.03;101866.53;5036535;28;987;-61
2022/11/11 06:37:46;;;;;;;;;;;;;;;16.09;79.17;101872.06;5036340;28;825;-62
2022/11/11 06:40:11;;;;;;;;;;;;;;;16.08;79.42;101876.75;5036390;28;1271;-61
2022/11/11 06:42:37;;;;;;;;;;;;;;;16.08;79.17;101873.97;5036384;28;1901;-61
2022/11/11 06:45:02;;;;;;;;;;;;;;;16.10;79.37;101891.09;5036389;28;861;-62
2022/11/11 06:47:27;;;;;;;;;;;;;;;16.08;79.46;101882.28;5036092;28;1011;-63
2022/11/11 06:49:53;;;;;;;;;;;;;;;16.08;79.17;101882.28;5036235;28;1216;-64
2022/11/11 06:52:18;;;;;;;;;;;;;;;16.07;79.07;101888.94;5036241;28;992;-64
2022/11/11 06:54:43;;;;;;;;;;;;;;;16.07;79.15;101888.94;5036271;28;852;-63
2022/11/11 06:57:08;;;;;;;;;;;;;;;16.06;79.31;101884.50;5035856;28;1046;-64
2022/11/11 06:59:33;;;;;;;;;;;;;;;16.06;79.32;101887.28;5036095;28;1158;-63
2022/11/11 07:01:58;;;;;;;;;;;;;;;16.06;79.16;101876.22;5035960;28;1897;-61
2022/11/11 07:04:23;;;;;;;;;;;;;;;16.06;79.46;101881.75;5036003;28;1034;-61
2022/11/11 07:06:49;;;;;;;;;;;;;;;16.06;79.18;101879.00;5035843;28;1007;-62
2022/11/11 07:09:14;;;;;;;;;;;;;;;16.06;79.43;101890.03;5035895;28;797;-61
2022/11/11 07:11:39;;;;;;;;;;;;;;;16.06;79.10;101889.22;5035904;28;1194;-61
2022/11/11 07:14:04;;;;;;;;;;;;;;;16.07;79.29;101890.88;5035924;28;1007;-61
2022/11/11 07:16:29;;;;;;;;;;;;;;;16.07;79.32;101899.16;5035599;28;948;-62
2022/11/11 07:18:54;;;;;;;;;;;;;;;16.06;79.09;101901.09;5035838;28;1035;-64
2022/11/11 07:21:19;;;;;;;;;;;;;;;16.07;79.22;101894.47;5035544;28;1897;-63
2022/11/11 07:23:45;;;;;;;;;;;;;;;16.08;79.35;101907.13;5035841;28;753;-63
2022/11/11 07:26:10;;;;;;;;;;;;;;;16.08;79.55;101909.91;5035435;28;888;-64
2022/11/11 07:28:35;;;;;;;;;;;;;;;16.09;79.48;101913.47;5035716;28;983;-63
2022/11/11 07:31:00;;;;;;;;;;;;;;;16.10;78.95;101913.22;5035343;28;1287;-64
2022/11/11 07:33:25;;;;;;;;;;;;;;;16.10;79.31;101913.22;5035452;28;1446;-65
2022/11/11 07:35:50;;;;;;;;;;;;;;;16.11;79.06;101914.88;5035231;28;888;-65
2022/11/11 07:38:16;;;;;;;;;;;;;;;16.12;79.52;101905.47;5035386;28;1032;-61
2022/11/11 07:40:41;;;;;;;;;;;;;;;16.12;79.50;101902.72;5035314;28;1295;-61
2022/11/11 07:43:06;;;;;;;;;;;;;;;16.12;79.03;101893.59;5034043;28;1973;-61
2022/11/11 07:45:31;;;;;;;;;;;;;;;16.13;79.17;101898.00;5035289;28;1043;-60
2022/11/11 07:47:56;;;;;;;;;;;;;;;16.14;79.17;101899.66;5035031;28;852;-63
2022/11/11 07:50:21;;;;;;;;;;;;;;;16.13;78.88;101901.59;5035103;28;1231;-63
2022/11/11 07:52:47;;;;;;;;;;;;;;;16.15;79.24;101915.13;5035161;28;796;-64
2022/11/11 07:55:12;;;;;;;;;;;;;;;16.15;79.24;101923.41;5035059;28;916;-64
2022/11/11 07:57:37;;;;;;;;;;;;;;;16.14;79.20;101922.59;5034844;28;983;-64
2022/11/11 08:00:03;;;;;;;;;;;;;;;16.14;79.06;101930.88;5035023;28;1205;-64
2022/11/11 08:02:29;;;;;;;;;;;;;;;16.15;79.36;101928.94;5034907;28;1965;-64
2022/11/11 08:04:54;;;;;;;;;;;;;;;16.14;79.32;101933.66;5034938;28;901;-64
2022/11/11 08:07:19;;;;;;;;;;;;;;;16.14;78.86;101944.69;5034724;28;1019;-64
2022/11/11 08:09:44;;;;;;;;;;;;;;;16.15;79.39;101945.53;5034854;28;1566;-65
2022/11/11 08:14:53;;;;;;;;;;;;;;;16.14;79.02;101936.41;5034724;28;719;-64
2022/11/11 08:17:18;;;;;;;;;;;;;;;16.14;79.48;101936.41;5034407;28;853;-62
2022/11/11 08:19:43;;;;;;;;;;;;;;;16.14;79.15;101944.69;5034536;28;1272;-62
2022/11/11 08:22:09;;;;;;;;;;;;;;;16.15;79.53;101949.13;5034514;28;1894;-63
2022/11/11 08:24:34;;;;;;;;;;;;;;;16.15;79.47;101960.16;5034525;28;912;-62
2022/11/11 08:26:59;;;;;;;;;;;;;;;16.14;79.03;101952.16;5034337;28;838;-65
2022/11/11 08:29:24;;;;;;;;;;;;;;;16.14;79.57;101955.75;5034435;28;1062;-64
2022/11/11 08:31:51;;;;;;;;;;;;;;;16.15;78.84;101959.34;5034192;28;1165;-65
2022/11/11 08:34:16;;;;;;;;;;;;;;;16.14;78.99;101963.22;5034367;28;873;-65
2022/11/11 08:36:41;;;;;;;;;;;;;;;16.14;78.69;101958.50;5034036;28;1020;-65
2022/11/11 08:39:06;;;;;;;;;;;;;;;16.13;79.04;101956.84;5034190;28;845;-64
2022/11/11 08:41:31;;;;;;;;;;;;;;;16.14;79.00;101963.22;5034075;28;1894;-65
2022/11/11 08:43:58;;;;;;;;;;;;;;;16.13;79.05;101959.63;5034170;28;880;-65
2022/11/11 08:46:24;;;;;;;;;;;;;;;16.14;78.87;101961.28;5033916;28;773;-62
2022/11/11 08:48:49;;;;;;;;;;;;;;;16.14;79.38;101963.22;5033691;28;916;-63
2022/11/11 08:51:14;;;;;;;;;;;;;;;16.14;78.91;101975.09;5034077;28;1234;-62
2022/11/11 08:53:40;;;;;;;;;;;;;;;16.13;79.33;101959.63;5034023;28;805;-63
2022/11/11 08:56:05;;;;;;;;;;;;;;;16.14;78.80;101971.50;5033811;28;1044;-63
2022/11/11 08:58:31;;;;;;;;;;;;;;;16.14;79.11;101968.72;5033948;28;842;-62
2022/11/11 09:00:56;;;;;;;;;;;;;;;16.15;79.25;101959.34;5033932;28;1272;-63
2022/11/11 09:03:21;;;;;;;;;;;;;;;16.14;78.79;101964.03;5033710;28;1883;-61
2022/11/11 09:05:46;;;;;;;;;;;;;;;16.14;79.17;101966.78;5033615;28;1035;-62
2022/11/11 09:08:12;;;;;;;;;;;;;;;16.15;78.96;101964.88;5033702;28;885;-61
2022/11/11 09:10:37;;;;;;;;;;;;;;;16.16;79.09;101970.06;5033718;28;1293;-63
2022/11/11 09:13:03;;;;;;;;;;;;;;;16.16;78.59;101981.13;5033675;28;947;-61
2022/11/11 09:15:28;;;;;;;;;;;;;;;16.17;79.14;101977.25;5033601;28;995;-61
2022/11/11 09:17:54;;;;;;;;;;;;;;;16.17;78.45;101968.97;5033590;28;848;-63
2022/11/11 09:20:20;;;;;;;;;;;;;;;16.19;79.10;101971.47;5033580;28;1278;-64
2022/11/11 09:22:46;;;;;;;;;;;;;;;16.18;79.00;101965.09;5033494;28;1885;-64
2022/11/11 09:25:11;;;;;;;;;;;;;;;16.20;79.06;101973.94;5033730;28;828;-63
2022/11/11 09:27:36;;;;;;;;;;;;;;;16.19;78.57;101969.53;5033385;28;789;-64
2022/11/11 09:30:02;;;;;;;;;;;;;;;16.21;79.00;101972.84;5033211;28;1602;-62
2022/11/11 09:32:27;;;;;;;;;;;;;;;16.22;78.63;101981.97;5033408;28;970;-61
2022/11/11 09:34:54;;;;;;;;;;;;;;;16.23;78.72;101986.38;5033397;28;888;-63
2022/11/11 09:37:19;;;;;;;;;;;;;;;16.22;78.45;101988.31;5033102;28;832;-64
2022/11/11 09:39:44;;;;;;;;;;;;;;;16.23;78.75;101981.69;5033299;28;1290;-64
2022/11/11 09:42:12;;;;;;;;;;;;;;;16.23;79.14;101981.69;5033300;28;1890;-63
2022/11/11 09:44:56;;;;;;;;;;;;;;;16.22;79.02;101974.50;5033749;28;975;-63
2022/11/11 09:47:38;;;;;;;;;;;;;;;16.23;79.14;101970.63;5033193;28;781;-64
2022/11/11 09:50:05;;;;;;;;;;;;;;;16.23;78.98;101969.81;5032923;28;1183;-64
2022/11/11 09:52:30;;;;;;;;;;;;;;;16.23;78.39;101972.56;5033125;28;843;-61
2022/11/11 09:55:02;;;;;;;;;;;;;;;16.23;79.15;101967.03;5033268;28;1035;-61
2022/11/11 09:57:36;;;;;;;;;;;;;;;16.22;79.29;101968.16;5032918;28;907;-61
2022/11/11 10:00:04;;;;;;;;;;;;;;;16.22;78.89;101968.16;5032836;28;1290;-64
2022/11/11 10:02:41;;;;;;;;;;;;;;;16.22;78.53;101965.38;5037057;28;1905;-63
2022/11/11 10:05:09;;;;;;;;;;;;;;;16.22;79.18;101960.69;5037180;28;1078;-63
2022/11/11 10:07:40;;;;;;;;;;;;;;;16.23;78.56;101955.97;5036768;28;1066;-64
2022/11/11 10:10:26;;;;;;;;;;;;;;;16.22;78.53;101949.63;5036939;28;1204;-63
2022/11/11 10:12:55;;;;;;;;;;;;;;;16.22;78.84;101946.88;5036672;28;1128;-64
2022/11/11 10:15:21;;;;;;;;;;;;;;;16.23;78.54;101955.97;5036853;28;825;-64
2022/11/11 10:17:55;;;;;;;;;;;;;;;16.22;78.63;101948.81;5036706;28;841;-64
2022/11/11 10:20:27;;;;;;;;;;;;;;;16.22;78.89;101955.16;5036902;28;1217;-63
2022/11/11 10:23:10;;;;;;;;;;;;;;;16.21;78.49;101959.03;5036776;28;1874;-63
2022/11/11 10:25:38;;;;;;;;;;;;;;;16.21;78.50;101958.19;5036780;28;834;-64
2022/11/11 10:28:04;;;;;;;;;;;;;;;16.21;78.60;101967.31;5036508;28;817;-64
2022/11/11 10:30:30;;;;;;;;;;;;;;;16.20;78.76;101965.66;5036289;28;1284;-62
2022/11/11 10:33:03;;;;;;;;;;;;;;;16.20;78.94;101957.38;5036597;28;920;-63
2022/11/11 10:35:30;;;;;;;;;;;;;;;16.21;78.98;101961.78;5036455;28;1170;-64
2022/11/11 10:38:10;;;;;;;;;;;;;;;16.20;78.43;101968.41;5036251;28;853;-63
2022/11/11 10:40:45;;;;;;;;;;;;;;;16.21;78.63;101967.31;5036468;28;1272;-61
2022/11/11 10:43:30;;;;;;;;;;;;;;;16.21;78.46;101963.72;5036337;28;1957;-63
2022/11/11 10:45:58;;;;;;;;;;;;;;;16.21;78.62;101969.25;5035660;28;1140;-63
2022/11/11 10:48:29;;;;;;;;;;;;;;;16.21;78.66;101975.59;5036342;28;785;-63
2022/11/11 10:50:58;;;;;;;;;;;;;;;16.20;78.91;101965.66;5036277;28;1291;-63
2022/11/11 10:53:23;;;;;;;;;;;;;;;16.22;78.94;101968.16;5036222;28;1008;-64
2022/11/11 10:55:55;;;;;;;;;;;;;;;16.21;78.33;101978.38;5036007;28;1052;-64
2022/11/11 10:58:26;;;;;;;;;;;;;;;16.22;78.73;101971.72;5036202;28;1004;-63
2022/11/11 11:00:52;;;;;;;;;;;;;;;16.22;78.95;101980.03;5035943;28;1206;-64
2022/11/11 11:03:29;;;;;;;;;;;;;;;16.23;78.62;101976.16;5036027;28;1910;-64
2022/11/11 11:05:54;;;;;;;;;;;;;;;16.24;78.92;101975.06;5035797;28;912;-60
2022/11/11 11:08:22;;;;;;;;;;;;;;;16.25;78.91;101973.91;5035979;28;820;-61
2022/11/11 11:10:50;;;;;;;;;;;;;;;16.26;78.57;101974.75;5035559;28;1279;-62
2022/11/11 11:13:22;;;;;;;;;;;;;;;16.25;79.00;101973.91;5036226;28;729;-62
2022/11/11 11:15:52;;;;;;;;;;;;;;;16.26;78.80;101970.03;5035615;28;964;-63
2022/11/11 11:18:18;;;;;;;;;;;;;;;16.27;78.36;101980.00;5035855;28;810;-62
2022/11/11 11:20:55;;;;;;;;;;;;;;;16.28;78.81;101975.28;5035702;28;1199;-61
2022/11/11 11:23:40;;;;;;;;;;;;;;;16.28;78.25;101978.06;5035624;28;1902;-63
2022/11/11 11:26:06;;;;;;;;;;;;;;;16.28;78.75;101976.13;5035454;28;864;-63
2022/11/11 11:28:33;;;;;;;;;;;;;;;16.28;79.03;101976.13;5035545;28;790;-61
2022/11/11 11:30:59;;;;;;;;;;;;;;;16.30;78.56;101970.31;5077943;23;1996;-62
2022/11/11 11:33:25;;;;;;;;;;;;;;;16.30;78.72;101972.25;5035639;28;1205;-62
2022/11/11 11:35:50;;;;;;;;;;;;;;;16.30;78.84;101955.69;5044414;28;999;-62
2022/11/11 11:38:15;;;;;;;;;;;;;;;16.29;78.79;101954.84;5055700;28;1050;-62
2022/11/11 11:40:46;;;;;;;;;;;;;;;16.29;78.66;101954.84;5055581;28;1214;-62
2022/11/11 11:43:38;;;;;;;;;;;;;;;16.30;78.77;101952.91;5055390;28;1906;-62
2022/11/11 11:46:15;;;;;;;;;;;;;;;16.30;78.91;101950.16;5054082;28;1205;-62
2022/11/11 11:48:52;;;;;;;;;;;;;;;16.29;78.99;101949.31;5055458;28;848;-62
2022/11/11 11:51:20;;;;;;;;;;;;;;;16.30;78.18;101941.84;5054973;28;1535;-62
2022/11/11 11:53:55;;;;;;;;;;;;;;;16.28;78.25;101945.72;5055036;28;876;-62
2022/11/11 11:56:23;;;;;;;;;;;;;;;16.31;78.55;101943.50;5054879;28;817;-62
2022/11/11 11:58:49;;;;;;;;;;;;;;;16.30;78.77;101939.09;5054879;28;852;-62
2022/11/11 12:01:26;;;;;;;;;;;;;;;16.31;78.88;101936.06;5055076;28;1190;-62
2022/11/11 12:04:09;;;;;;;;;;;;;;;16.31;78.55;101933.28;5055105;28;784;-62
2022/11/11 12:06:53;;;;;;;;;;;;;;;16.30;78.84;101928.88;5054921;28;903;-62
2022/11/11 12:09:45;;;;;;;;;;;;;;;16.31;78.55;101935.22;5055265;28;875;-62
2022/11/11 12:12:19;;;;;;;;;;;;;;;16.30;78.81;101933.56;5054793;28;1309;-62
2022/11/11 12:15:03;;;;;;;;;;;;;;;16.31;78.25;101929.69;5043348;28;1812;-62
2022/11/11 12:17:40;;;;;;;;;;;;;;;16.31;78.45;101933.28;5042949;28;1317;-62
2022/11/11 12:20:24;;;;;;;;;;;;;;;16.30;78.33;101930.81;5051891;28;1645;-62
2022/11/11 12:23:09;;;;;;;;;;;;;;;16.30;78.08;101928.88;5053701;28;1902;-62
2022/11/11 12:25:47;;;;;;;;;;;;;;;16.30;78.32;101922.50;5054618;28;1901;-62
2022/11/11 12:28:38;;;;;;;;;;;;;;;16.29;78.24;101927.22;5046214;28;1605;-62
2022/11/11 12:31:22;;;;;;;;;;;;;;;16.13;76.78;101931.16;5016860;28;1577;-61
2022/11/11 12:33:55;;;;;;;;;;;;;;;15.82;77.65;101924.94;5044632;28;1359;-62
2022/11/11 12:36:28;;;;;;;;;;;;;;;15.96;78.09;101930.69;5043239;28;1297;-62
2022/11/11 12:38:53;;;;;;;;;;;;;;;16.05;77.75;101920.69;5048582;28;1287;-62
2022/11/11 12:41:18;;;;;;;;;;;;;;;16.13;78.04;101922.88;5054319;28;1342;-62
2022/11/11 12:43:55;;;;;;;;;;;;;;;16.18;77.60;101926.44;5054076;28;1981;-62
2022/11/11 12:46:29;;;;;;;;;;;;;;;16.24;77.94;101925.31;5045739;28;1465;-62
2022/11/11 12:49:13;;;;;;;;;;;;;;;16.28;77.91;101923.63;5043860;28;1376;-62
2022/11/11 12:51:47;;;;;;;;;;;;;;;16.32;77.84;101925.81;5044395;28;1345;-62
2022/11/11 12:54:21;;;;;;;;;;;;;;;16.35;77.32;101919.72;5043393;28;1575;-62
2022/11/11 12:57:04;;;;;;;;;;;;;;;16.37;77.96;101921.09;5036803;28;1508;-62
2022/11/11 12:59:32;;;;;;;;;;;;;;;16.39;77.64;101916.13;5034058;28;1019;-62
2022/11/11 13:02:15;;;;;;;;;;;;;;;16.41;77.31;101916.66;5034022;28;1977;-62
2022/11/11 13:04:54;;;;;;;;;;;;;;;16.44;77.97;101913.31;5043856;28;1241;-62
2022/11/11 13:07:30;;;;;;;;;;;;;;;16.46;77.34;101911.09;5053844;28;1015;-62
2022/11/11 13:10:11;;;;;;;;;;;;;;;16.47;77.94;101914.69;5053879;28;1216;-62
2022/11/11 13:12:43;;;;;;;;;;;;;;;16.50;77.31;101911.34;5044551;28;2069;-62
2022/11/11 13:15:14;;;;;;;;;;;;;;;16.51;77.42;101919.34;5050710;28;1987;-63
2022/11/11 13:17:39;;;;;;;;;;;;;;;16.50;77.38;101911.34;5038169;28;1845;-62
2022/11/11 13:20:18;;;;;;;;;;;;;;;16.50;77.39;101920.44;5043901;28;1866;-62
2022/11/11 13:22:43;;;;;;;;;;;;;;;16.53;77.81;101910.78;5050480;28;1898;-62
2022/11/11 13:25:13;;;;;;;;;;;;;;;16.53;77.88;101906.06;5051799;28;1894;-62
2022/11/11 13:27:42;;;;;;;;;;;;;;;16.53;77.47;101900.53;5051765;28;1897;-62
2022/11/11 13:30:16;;;;;;;;;;;;;;;16.56;77.52;101915.72;5050535;28;2135;-62
2022/11/11 13:32:45;;;;;;;;;;;;;;;16.56;77.08;101901.91;5042969;28;1791;-62
2022/11/11 13:35:17;;;;;;;;;;;;;;;16.56;77.36;101901.91;5041209;28;1905;-62
2022/11/11 13:37:43;;;;;;;;;;;;;;;16.56;77.31;101907.44;5046378;28;1870;-62
2022/11/11 13:40:22;;;;;;;;;;;;;;;16.57;77.25;101906.34;5043453;28;1611;-62
2022/11/11 13:42:49;;;;;;;;;;;;;;;16.57;77.11;101906.34;5044506;28;1910;-63
2022/11/11 13:45:25;;;;;;;;;;;;;;;16.57;77.86;101909.94;5042508;28;1927;-62
2022/11/11 13:47:50;;;;;;;;;;;;;;;16.58;77.33;101910.75;5040616;28;2187;-62
2022/11/11 13:50:32;;;;;;;;;;;;;;;16.60;76.95;101916.78;5035585;28;1916;-62
2022/11/11 13:53:02;;;;;;;;;;;;;;;16.59;77.23;101909.59;5051374;28;1706;-62
2022/11/11 13:55:30;;;;;;;;;;;;;;;16.59;77.73;101915.13;5045979;28;1885;-62
2022/11/11 13:57:55;;;;;;;;;;;;;;;16.59;77.58;101915.97;5052624;28;876;-62
2022/11/11 14:00:20;;;;;;;;;;;;;;;16.60;77.60;101914.84;5043822;28;1978;-62
2022/11/11 14:02:46;;;;;;;;;;;;;;;16.61;76.98;101918.47;5043789;28;1957;-62
2022/11/11 14:05:18;;;;;;;;;;;;;;;16.59;77.42;101915.13;5045073;28;1762;-62
2022/11/11 14:07:43;;;;;;;;;;;;;;;16.62;77.45;101912.69;5032678;28;1664;-62
2022/11/11 14:10:09;;;;;;;;;;;;;;;16.63;77.64;101914.34;5032937;28;1201;-62
2022/11/11 14:12:36;;;;;;;;;;;;;;;16.63;77.65;101919.03;5034112;28;1740;-62
2022/11/11 14:15:06;;;;;;;;;;;;;;;16.63;77.45;101917.09;5045806;28;1920;-62
2022/11/11 14:17:32;;;;;;;;;;;;;;;16.64;77.87;101906.88;5044864;28;1992;-62